• Join FlightAware (Why Join?)
  • Login
  • US Flag 
01:28AM EDT


 

Airport Tracker/Info


-or-


 

Live Flight TrackerFlight Track Log ✈ AWE3418 ✈ 21-Jul-2013 ✈ KPHL - KMHT

Flight Track Log - Related Links

Times and Time Zones

All times are in EDT time to prevent confusion due to time zone crossing. See the AWE3418 flight status page for this flight to view local times or setup timezone preferences in your user account.

Time Position Orientation Groundspeed Altitude Reporting Facility
EDT Latitude Longitude Course Direction KTS MPH feet Rate Location/Type
07:24PM 39.8833 -75.2167 307° West 148 170 900  Level Philadelphia TRACON
07:25PM 39.9000 -75.1500 72° East 218 251 2,900 2,160 Climbing Philadelphia TRACON
07:26PM 39.9167 -75.0667 75° East 280 322 5,300 2,040 Climbing Philadelphia TRACON
07:27PM 40.1420 -75.4920 323° Northwest  Level FlightAware Approximate
07:27PM 40.0000 -75.0667 360° North 281 323 7,000  Level Philadelphia TRACON
07:28PM 40.2137 -75.5500 North  Level FlightAware Approximate
07:29PM 40.2718 -75.6327 311° West  Level FlightAware Approximate
07:30PM 40.3278 -75.7195 307° West  Level FlightAware Approximate
07:30PM 40.1106 -75.2300 312° West 294 338 10,000  Level New York Center
07:31PM 40.1419 -75.3325 292° West 300 345 10,300 1,260 Climbing New York Center
07:32PM 40.1797 -75.4383 295° West 312 359 12,500 2,220 Climbing New York Center
07:33PM 40.2150 -75.5411 294° West 319 367 14,800 2,220 Climbing New York Center
07:34PM 40.2700 -75.6267 310° West 332 382 17,000 1,080 Climbing New York Center
07:35PM 40.3286 -75.7206 309° West 332 382 17,000  Level New York Center
07:36PM 40.3953 -75.8208 311° West 342 394 17,000 900 Level New York Center
07:37PM 40.4447 -75.9281 301° West 347 399 18,800 1,500 Climbing New York Center
07:38PM 40.4631 -76.0358 283° West 335 386 20,000 540 Climbing New York Center
07:39PM 40.4822 -76.1603 281° West 345 397 20,000  Level New York Center
07:40PM 40.5017 -76.2817 282° West 345 397 20,000 600 Level New York Center
07:41PM 40.5208 -76.4089 281° West 345 397 21,300 1,800 Climbing New York Center
07:42PM 40.5400 -76.5306 282° West 350 403 23,600 1,860 Climbing New York Center
07:43PM 40.5844 -76.6436 297° West 350 403 25,000 660 Climbing New York Center
07:44PM 40.6886 -76.6856 343° North 337 388 25,000  Level New York Center
07:45PM 40.7867 -76.5981 34° Northeast 315 362 25,000  Level New York Center
07:46PM 40.8717 -76.4792 47° Northeast 366 421 25,000 600 Level New York Center
07:47PM 40.9586 -76.3600 46° Northeast 409 471 26,200 960 Climbing New York Center
07:48PM 41.0456 -76.2406 46° Northeast 427 491 27,000 360 Climbing New York Center
07:49PM 41.1344 -76.1153 47° Northeast 450 518 27,000  Level New York Center
07:50PM 41.2256 -75.9875 47° Northeast 461 531 27,000  Level New York Center
07:51PM 41.3161 -75.8700 44° Northeast 461 531 27,000  Level New York Center
07:52PM 41.4069 -75.7442 46° Northeast 456 525 27,000  Level New York Center
07:53PM 41.5042 -75.6047 47° Northeast 461 531 27,000  Level New York Center
07:55PM 41.7050 -75.3239 46° Northeast 454 522 27,000  Level Boston Center
07:56PM 41.7958 -75.1942 47° Northeast 459 528 27,000  Level Boston Center
07:57PM 41.8842 -75.0669 47° Northeast 459 528 27,000  Level Boston Center
07:58PM 41.9583 -74.9250 55° Northeast 465 535 27,000  Level Boston Center
07:59PM 42.0161 -74.7622 64° Northeast 470 541 27,000  Level Boston Center
08:00PM 42.0606 -74.6214 67° East 465 535 27,000  Level Boston Center
08:01PM 42.1247 -74.4219 66° East 465 535 27,000  Level Boston Center
08:02PM 42.1794 -74.2611 65° Northeast 465 535 27,000  Level Boston Center
08:03PM 42.2319 -74.0972 67° East 471 542 27,000  Level Boston Center
08:04PM 42.2864 -73.9331 66° East 471 542 27,000  Level Boston Center
08:05PM 42.3383 -73.7714 66° East 471 542 27,000 -660 Level Boston Center
08:06PM 42.3903 -73.6094 66° East 471 542 25,700 -1,740 Descending Boston Center
08:07PM 42.4397 -73.4472 68° East 471 542 23,600 -1,980 Descending Boston Center
08:08PM 42.4911 -73.2875 66° East 477 549 21,800 -1,800 Descending Boston Center
08:09PM 42.5381 -73.1219 69° East 469 540 20,000 -1,440 Descending Boston Center
08:10PM 42.5783 -72.9561 72° East 439 505 19,000 -720 Descending Boston Center
08:11PM 42.6167 -72.8011 71° East 429 494 18,600 -1,200 Descending Boston Center
08:12PM 42.6525 -72.6547 72° East 419 482 16,600 -1,920 Descending Boston Center
08:13PM 42.6858 -72.5136 72° East 406 467 14,800 -1,800 Descending Boston Center
08:14PM 42.7172 -72.3781 72° East 394 453 13,000 -1,800 Descending Boston Center
08:15PM 42.7483 -72.2450 72° East 376 433 11,200 -1,380 Descending Boston Center
08:16PM 42.7731 -72.1375 73° East 342 394 10,300 -1,140 Descending Boston Center
08:17PM 42.8039 -72.0156 71° East 326 375 9,000 -1,200 Descending Boston Center
08:18PM 42.8453 -71.9247 58° Northeast 301 346 8,000 -1,380 Descending Boston Center
08:19PM 42.8947 -71.8222 57° Northeast 295 339 6,300 -1,560 Descending Boston Center
08:20PM 42.9339 -71.7425 56° Northeast 279 321 5,000 -1,320 Descending Boston Center
08:21PM 42.9792 -71.6511 56° Northeast 274 315 3,700 -1,320 Descending Boston Center